Catàleg de serveis del Meteocat

Dades de l'estació automàtica Castellnou de Bages

?
?
Resum diari 22:00 TU
Dades diàries de l'estació meteorològica
Temperatura mitjana 6.5 °C
Temperatura màxima 10.7 °C 11:59 TU
Temperatura mínima 3.4 °C 22:22 TU
Humitat relativa mitjana 84%
Precipitació acumulada 0.0 mm
Ratxa màxima del vent (10 m) 30.2 km/h - 290º 3:15 TU
Irradiació solar global 7.4 MJ/m2

El tram horari està expressat en Temps Universal (TU). Cal sumar una hora en horari d'hivern i dues en horari d'estiu per passar a l'hora oficial.

Castellnou de Bages

Metadades estació meteorol´gica
Municipi Castellnou de Bages
Comarca Bages
Altitud 507 m
Data alta 22.01.1998
Estat actual Operativa
Dades de període
Període
TU
TM
°C
TX
°C
TN
°C
HRM
%
PPT
mm
VVM (10 m)
km/h
DVM (10 m)
graus
VVX (10 m)
km/h
RS
W/m2
00:00 - 00:30 7.4 7.6 7.2 78 0.0 11.9 285 27.0 0
00:30 - 01:00 7.3 7.5 7.2 79 0.0 14.8 302 28.8 0
01:00 - 01:30 6.8 7.4 6.0 81 0.0 11.2 333 27.0 0
01:30 - 02:00 6.2 6.8 5.8 84 0.0 13.0 333 28.4 0
02:00 - 02:30 6.8 6.9 6.6 83 0.0 12.2 297 29.9 0
02:30 - 03:00 6.8 6.9 6.7 83 0.0 12.2 292 24.8 0
03:00 - 03:30 6.7 6.8 6.6 83 0.0 13.3 299 30.2 0
03:30 - 04:00 6.7 6.7 6.5 83 0.0 13.3 299 27.7 0
04:00 - 04:30 6.0 6.6 5.6 85 0.0 7.2 329 20.5 0
04:30 - 05:00 5.8 6.0 5.5 87 0.0 7.6 347 14.8 0
05:00 - 05:30 5.8 5.9 5.7 87 0.0 10.4 335 20.2 0
05:30 - 06:00 5.7 6.0 5.4 87 0.0 8.6 339 15.8 0
06:00 - 06:30 4.7 5.4 4.2 91 0.0 7.2 349 15.1 0
06:30 - 07:00 5.0 5.3 4.7 90 0.0 7.9 340 13.3 0
07:00 - 07:30 4.4 5.4 3.9 92 0.0 6.5 0 11.9 4
07:30 - 08:00 4.1 4.1 4.1 93 0.0 5.8 14 10.1 23
08:00 - 08:30 4.0 4.1 3.9 93 0.0 5.4 22 12.2 48
08:30 - 09:00 4.6 5.2 4.1 92 0.0 7.6 29 12.2 170
09:00 - 09:30 5.3 6.3 4.7 89 0.0 7.6 19 13.0 275
09:30 - 10:00 6.3 6.7 5.8 87 0.0 7.9 52 12.6 375
10:00 - 10:30 6.7 7.1 6.5 85 0.0 8.3 55 13.7 402
10:30 - 11:00 7.2 7.6 6.9 82 0.0 6.8 54 12.2 357
11:00 - 11:30 8.3 9.7 7.2 77 0.0 5.4 15 12.2 446
11:30 - 12:00 9.6 10.7 9.1 72 0.0 5.8 260 11.5 410
12:00 - 12:30 9.9 10.6 9.3 72 0.0 7.2 226 15.5 295
12:30 - 13:00 9.3 9.6 9.1 76 0.0 7.2 218 12.6 220
13:00 - 13:30 9.3 9.7 8.6 76 0.0 9.4 226 15.1 269
13:30 - 14:00 9.1 10.0 8.6 73 0.0 8.6 255 14.8 310
14:00 - 14:30 9.7 10.2 9.3 71 0.0 7.9 250 13.7 240
14:30 - 15:00 9.6 10.0 9.3 73 0.0 6.5 256 11.2 186
15:00 - 15:30 8.9 9.2 8.5 75 0.0 5.0 262 10.4 92
15:30 - 16:00 8.2 8.4 7.8 79 0.0 5.4 271 11.5 42
16:00 - 16:30 7.5 7.8 7.1 81 0.0 5.4 307 9.4 7
16:30 - 17:00 7.2 7.4 7.1 79 0.0 7.9 307 13.7 0
17:00 - 17:30 6.8 7.1 6.4 80 0.0 5.8 344 11.5 0
17:30 - 18:00 6.6 7.1 6.0 83 0.0 5.4 25 9.0 0
18:00 - 18:30 6.0 6.3 5.7 85 0.0 3.2 2 5.4 0
18:30 - 19:00 5.6 5.9 5.2 87 0.0 1.8 296 3.6 0
19:00 - 19:30 5.6 5.7 5.3 86 0.0 3.2 300 5.8 0
19:30 - 20:00 5.0 5.4 4.8 90 0.0 5.4 7 9.0 0
20:00 - 20:30 4.2 4.8 3.8 94 0.0 2.2 10 7.2 0
20:30 - 21:00 4.1 4.4 3.9 96 0.0 2.9 38 7.6 0
21:00 - 21:30 4.6 4.9 4.4 94 0.0 2.9 25 6.8 0
21:30 - 22:00 4.5 4.9 4.3 94 0.0 4.3 346 7.9 0
22:00 - 22:30 3.8 4.2 3.4 96 0.0 6.5 6 10.1 0
22:30 - 23:00 (s/d) (s/d) (s/d) (s/d) (s/d) (s/d) (s/d) (s/d) (s/d)

Les dades en taronja només han passat un control de qualitat automàtic. Resta pendent la seva validació definitiva.